Time;durP1;ratioP1;P1;durP2;ratioP2;P2;SDS_P1;SDS_P2;PMS_P1;PMS_P2;Temp;Humidity;BMP_temperature;BMP_pressure;BME280_temperature;BME280_humidity;BME280_pressure;Samples;Min_cycle;Max_cycle;Signal;HPM_P1;HPM_P2
2023/02/28 00:04:22;;;;;;;9.68;4.70;;;;;;;0.48;58.67;98878.13;10389505;28;20140;-76
2023/02/28 00:09:43;;;;;;;10.10;4.55;;;;;;;0.48;58.23;98872.63;10375562;28;20434;-76
2023/02/28 00:15:08;;;;;;;11.23;5.10;;;;;;;0.50;58.12;98875.66;10402269;28;20446;-76
2023/02/28 00:20:29;;;;;;;7.95;4.57;;;;;;;0.51;58.20;98866.16;10388614;28;20475;-76
2023/02/28 00:25:50;;;;;;;9.10;5.10;;;;;;;0.53;58.70;98874.66;10388466;28;20060;-76
2023/02/28 00:31:12;;;;;;;9.88;5.05;;;;;;;0.56;58.49;98876.38;10374517;28;20037;-76
2023/02/28 00:36:33;;;;;;;7.65;4.43;;;;;;;0.53;57.95;98872.66;10374377;28;20502;-76
2023/02/28 00:41:57;;;;;;;8.70;4.75;;;;;;;0.54;58.18;98870.66;10388662;28;20037;-76
2023/02/28 00:47:18;;;;;;;10.07;4.82;;;;;;;0.54;58.77;98870.66;10374163;28;20065;-76
2023/02/28 00:52:40;;;;;;;11.57;5.15;;;;;;;0.58;58.31;98873.91;10387658;28;20041;-76
2023/02/28 00:58:01;;;;;;;8.75;4.75;;;;;;;0.55;58.96;98872.16;10386512;28;20038;-76
2023/02/28 01:03:22;;;;;;;10.38;4.95;;;;;;;0.58;58.59;98871.16;10387231;28;20495;-76
2023/02/28 01:08:44;;;;;;;8.70;5.05;;;;;;;0.62;58.47;98862.66;10373759;28;20071;-76
2023/02/28 01:14:05;;;;;;;11.05;5.32;;;;;;;0.61;58.72;98870.16;10370870;28;20111;-76
2023/02/28 01:19:26;;;;;;;11.35;5.22;;;;;;;0.59;58.78;98861.66;10372997;28;20054;-76
2023/02/28 01:24:48;;;;;;;10.00;5.10;;;;;;;0.60;58.75;98862.41;10386778;28;20391;-76
2023/02/28 01:30:09;;;;;;;8.80;4.50;;;;;;;0.62;58.46;98871.66;10372978;28;20041;-76
2023/02/28 01:35:33;;;;;;;10.27;4.72;;;;;;;0.54;58.46;98865.16;10386433;28;20054;-76
2023/02/28 01:40:54;;;;;;;10.17;5.20;;;;;;;0.45;58.72;98865.41;10386453;28;20045;-76
2023/02/28 01:46:15;;;;;;;13.77;5.47;;;;;;;0.43;59.37;98865.16;10386230;28;20049;-76
2023/02/28 01:51:50;;;;;;;10.55;5.45;;;;;;;0.42;59.38;98863.66;10386413;28;20050;-76
2023/02/28 01:57:16;;;;;;;9.13;5.07;;;;;;;0.40;58.98;98852.44;10400216;28;20050;-76
2023/02/28 02:02:37;;;;;;;11.55;5.35;;;;;;;0.40;59.48;98846.94;10372194;28;20068;-76
2023/02/28 02:08:02;;;;;;;11.05;5.45;;;;;;;0.31;59.21;98852.69;10374926;28;20045;-76
2023/02/28 02:13:43;;;;;;;11.52;5.85;;;;;;;0.31;59.36;98852.69;10393474;28;20050;-76
2023/02/28 02:19:54;;;;;;;9.85;4.55;;;;;;;0.25;59.64;98838.94;10406676;28;20068;-76
2023/02/28 02:25:36;;;;;;;12.27;5.88;;;;;;;0.27;59.35;98842.66;10389896;28;20060;-76
2023/02/28 02:31:25;;;;;;;8.82;4.75;;;;;;;0.33;59.27;98839.19;10406736;28;20046;-76
2023/02/28 02:37:18;;;;;;;8.75;4.38;;;;;;;0.13;59.27;98848.41;10392400;28;20057;-76
2023/02/28 02:42:51;;;;;;;7.90;4.40;;;;;;;0.04;58.48;98852.13;10415041;28;20059;-79
2023/02/28 02:48:15;;;;;;;9.98;4.78;;;;;;;-0.14;59.05;98836.13;10380849;28;20515;-78
2023/02/28 02:53:38;;;;;;;10.50;4.38;;;;;;;-0.13;59.55;98843.84;10365937;28;20044;-78
2023/02/28 02:59:02;;;;;;;11.77;4.78;;;;;;;-0.20;59.54;98838.09;10378742;28;20050;-78
2023/02/28 03:04:24;;;;;;;10.35;4.68;;;;;;;-0.27;59.16;98838.59;10392332;28;20049;-78
2023/02/28 03:09:53;;;;;;;7.57;4.43;;;;;;;-0.32;59.67;98846.31;10413401;28;20045;-79
2023/02/28 03:15:19;;;;;;;9.57;4.63;;;;;;;-0.34;59.12;98853.53;10409889;28;20077;-78
2023/02/28 03:20:49;;;;;;;9.07;4.43;;;;;;;-0.43;59.57;98849.00;10382940;28;20048;-78
2023/02/28 03:26:28;;;;;;;9.25;4.40;;;;;;;-0.60;59.81;98848.19;10399992;28;20037;-78
2023/02/28 03:31:54;;;;;;;8.93;4.85;;;;;;;-0.64;59.75;98845.69;10413251;28;20044;-78
2023/02/28 03:37:18;;;;;;;9.48;4.53;;;;;;;-0.68;59.82;98844.41;10408845;28;20096;-79
2023/02/28 03:42:41;;;;;;;10.15;4.45;;;;;;;-0.78;59.79;98851.34;10410136;28;20399;-78
2023/02/28 03:48:17;;;;;;;10.48;4.38;;;;;;;-1.00;60.42;98841.75;10410809;28;20052;-78
2023/02/28 03:53:42;;;;;;;8.35;4.45;;;;;;;-1.07;60.81;98842.22;10409171;28;20041;-78
2023/02/28 03:59:17;;;;;;;11.68;4.38;;;;;;;-1.12;60.82;98836.72;10412069;28;20086;-78
2023/02/28 04:04:38;;;;;;;9.32;4.40;;;;;;;-1.19;60.53;98846.88;10430161;28;20491;-79
2023/02/28 04:10:00;;;;;;;14.10;5.38;;;;;;;-1.26;61.24;98852.81;10366055;28;20396;-78
2023/02/28 04:15:22;;;;;;;13.70;5.70;;;;;;;-1.35;62.01;98852.25;10385726;28;20033;-78
2023/02/28 04:20:43;;;;;;;10.30;5.00;;;;;;;-1.42;62.04;98850.72;10399860;28;20831;-78
2023/02/28 04:26:05;;;;;;;11.82;4.40;;;;;;;-1.47;61.50;98854.91;10401881;28;20045;-78
2023/02/28 04:31:26;;;;;;;9.75;4.65;;;;;;;-1.47;61.47;98848.66;10374660;28;20045;-79
2023/02/28 04:36:53;;;;;;;11.70;5.22;;;;;;;-1.53;61.78;98858.84;10401383;28;20053;-78
2023/02/28 04:42:35;;;;;;;10.77;5.10;;;;;;;-1.52;61.65;98854.88;10394255;28;20052;-78
2023/02/28 04:47:56;;;;;;;11.25;5.07;;;;;;;-1.56;61.92;98863.28;10374586;28;20045;-78
2023/02/28 04:53:17;;;;;;;10.98;4.63;;;;;;;-1.59;62.01;98861.53;10373749;28;20049;-78
2023/02/28 04:58:39;;;;;;;10.63;5.07;;;;;;;-1.65;61.93;98866.19;10387381;28;20115;-78
2023/02/28 05:04:03;;;;;;;9.65;4.55;;;;;;;-1.71;62.47;98873.63;10419825;28;20056;-78
2023/02/28 05:09:32;;;;;;;10.55;4.68;;;;;;;-1.79;63.34;98878.78;10415378;28;20102;-78
2023/02/28 05:14:53;;;;;;;10.48;4.78;;;;;;;-1.78;63.39;98879.53;10426546;28;20052;-78
2023/02/28 05:20:14;;;;;;;11.60;4.78;;;;;;;-1.81;62.90;98881.25;10412070;28;20045;-78
2023/02/28 05:25:36;;;;;;;11.57;5.22;;;;;;;-1.86;62.74;98873.72;10413192;28;20053;-78
2023/02/28 05:30:59;;;;;;;13.63;4.97;;;;;;;-1.91;62.91;98885.38;10406751;28;20049;-78
2023/02/28 05:36:27;;;;;;;11.85;5.70;;;;;;;-1.92;63.25;98891.34;10359259;28;20042;-78
2023/02/28 05:41:48;;;;;;;10.35;5.32;;;;;;;-1.97;63.14;98892.78;10383642;28;20046;-78
2023/02/28 05:47:09;;;;;;;11.23;5.63;;;;;;;-1.98;63.20;98896.75;10401658;28;20056;-78
2023/02/28 05:52:30;;;;;;;9.68;5.43;;;;;;;-1.94;63.35;98896.53;10405132;28;20052;-79
2023/02/28 05:57:51;;;;;;;13.48;6.35;;;;;;;-1.88;63.07;98913.78;10401719;28;20791;-78
2023/02/28 06:03:11;;;;;;;13.45;5.85;;;;;;;-1.35;63.21;98905.06;10403924;28;20495;-78
2023/02/28 06:08:32;;;;;;;11.88;4.97;;;;;;;-0.14;61.51;98908.22;10416508;28;20487;-78
2023/02/28 06:13:55;;;;;;;15.63;5.78;;;;;;;1.19;59.11;98925.34;10401962;28;20041;-79
2023/02/28 06:19:17;;;;;;;10.70;5.18;;;;;;;2.75;58.35;98923.13;10416017;28;20052;-79
2023/02/28 06:24:37;;;;;;;11.80;5.93;;;;;;;4.21;55.77;98930.59;10416824;28;20037;-77
2023/02/28 06:29:58;;;;;;;10.63;6.07;;;;;;;5.45;50.13;98944.75;10416514;28;20045;-77
2023/02/28 06:35:19;;;;;;;11.35;6.50;;;;;;;6.63;44.29;98947.91;10395149;28;20099;-77
2023/02/28 06:40:40;;;;;;;11.88;6.80;;;;;;;7.24;44.76;98947.72;10390382;28;20132;-77
2023/02/28 06:46:03;;;;;;;10.80;6.97;;;;;;;6.34;45.90;98954.63;10396017;28;20041;-78
2023/02/28 06:51:24;;;;;;;11.55;6.78;;;;;;;7.31;44.07;98958.16;10379630;28;20049;-78
2023/02/28 06:56:45;;;;;;;12.15;6.47;;;;;;;9.68;42.69;98960.41;10399400;28;20175;-77
2023/02/28 07:02:08;;;;;;;13.27;6.60;;;;;;;10.53;31.93;98967.22;10373779;28;20054;-78
2023/02/28 07:07:28;;;;;;;13.55;6.20;;;;;;;12.25;36.23;98968.97;10369960;28;20045;-77
2023/02/28 07:12:49;;;;;;;13.23;6.20;;;;;;;13.14;34.25;98968.94;10397276;28;20037;-77
2023/02/28 07:18:10;;;;;;;10.40;6.38;;;;;;;14.28;29.35;98968.97;10408174;28;20107;-77
2023/02/28 07:23:31;;;;;;;12.13;6.53;;;;;;;14.87;26.82;98973.22;10393232;28;20044;-77
2023/02/28 07:28:52;;;;;;;13.05;6.85;;;;;;;15.55;28.10;98978.56;10392947;28;20042;-78
2023/02/28 07:34:13;;;;;;;9.35;5.93;;;;;;;15.93;26.49;98983.25;10395136;28;20057;-80
2023/02/28 07:39:34;;;;;;;9.73;5.88;;;;;;;16.85;24.98;98992.69;10379515;28;20093;-80
2023/02/28 07:44:55;;;;;;;9.65;5.88;;;;;;;17.26;22.89;99003.66;10381263;28;20065;-79
2023/02/28 07:50:16;;;;;;;8.75;5.53;;;;;;;17.51;22.76;98992.50;10410443;28;20045;-80
2023/02/28 07:55:37;;;;;;;10.75;6.30;;;;;;;17.93;22.05;99005.59;10430426;28;20059;-80
2023/02/28 08:01:07;;;;;;;10.32;5.70;;;;;;;18.25;20.32;98994.72;10407667;28;20029;-80
2023/02/28 08:06:28;;;;;;;9.35;5.88;;;;;;;17.37;20.40;99003.69;10388435;28;20056;-81
2023/02/28 08:11:49;;;;;;;8.70;5.18;;;;;;;18.44;20.00;99000.06;10375434;28;20069;-81
2023/02/28 08:17:10;;;;;;;10.02;6.47;;;;;;;18.73;19.31;99002.41;10388536;28;20052;-78
2023/02/28 08:22:31;;;;;;;8.13;5.82;;;;;;;16.33;20.17;99004.16;10387786;28;20498;-80
2023/02/28 08:27:52;;;;;;;7.80;5.68;;;;;;;18.44;18.59;98990.84;10347497;28;20073;-79
2023/02/28 08:33:13;;;;;;;11.48;6.10;;;;;;;22.56;16.45;98995.91;10418563;28;20069;-76
2023/02/28 08:38:34;;;;;;;7.53;6.07;;;;;;;24.83;13.68;98996.13;10411290;28;20037;-76
2023/02/28 08:43:55;;;;;;;8.95;6.28;;;;;;;24.53;12.55;98998.78;10387782;28;20041;-76
2023/02/28 08:49:16;;;;;;;9.88;6.18;;;;;;;21.76;13.87;99011.00;10387444;28;20123;-76
2023/02/28 08:54:36;;;;;;;10.18;6.15;;;;;;;19.16;15.97;99001.91;10376585;28;20042;-78
2023/02/28 08:59:57;;;;;;;10.23;5.75;;;;;;;16.97;18.21;99010.38;10438660;28;20076;-79
2023/02/28 09:05:18;;;;;;;9.77;5.63;;;;;;;14.48;20.70;99003.47;10428041;28;20087;-80
2023/02/28 09:10:38;;;;;;;10.07;5.78;;;;;;;14.14;20.96;98996.03;10416227;28;20046;-80
2023/02/28 09:16:00;;;;;;;7.88;5.40;;;;;;;14.49;22.16;98988.81;10400311;28;20065;-79
2023/02/28 09:21:21;;;;;;;6.47;4.60;;;;;;;15.16;23.08;98990.00;10386286;28;20051;-80
2023/02/28 09:26:42;;;;;;;9.73;4.88;;;;;;;17.50;22.81;98990.31;10408199;28;20056;-80
2023/02/28 09:32:23;;;;;;;8.50;5.55;;;;;;;19.55;19.68;98996.19;10441663;28;20103;-81
2023/02/28 09:37:45;;;;;;;6.50;4.78;;;;;;;23.13;14.80;98983.88;10413323;28;20080;-81
2023/02/28 09:43:05;;;;;;;6.75;4.20;;;;;;;25.35;13.26;98994.13;10386775;28;20384;-77
2023/02/28 09:48:35;;;;;;;5.85;4.28;;;;;;;25.35;11.54;98994.13;10385876;28;20041;-79
2023/02/28 09:53:59;;;;;;;7.35;4.82;;;;;;;27.18;11.06;99000.19;10386085;28;20064;-80
2023/02/28 09:59:46;;;;;;;7.47;4.47;;;;;;;28.36;9.66;98996.75;10384751;28;20519;-80
2023/02/28 10:05:43;;;;;;;6.43;4.63;;;;;;;29.23;9.38;99006.66;10398425;28;20057;-77
2023/02/28 10:11:06;;;;;;;7.68;4.35;;;;;;;29.52;9.09;99004.91;10399605;28;20501;-80
2023/02/28 10:16:34;;;;;;;7.57;4.70;;;;;;;27.08;9.60;99006.44;10399112;28;20060;-81
2023/02/28 10:22:00;;;;;;;9.15;4.90;;;;;;;26.90;9.52;99003.88;10399277;28;20041;-83
2023/02/28 10:27:22;;;;;;;6.30;5.00;;;;;;;27.09;9.61;99002.88;10371758;28;20072;-82
2023/02/28 10:32:48;;;;;;;8.55;4.30;;;;;;;27.18;9.83;99003.06;10379395;28;20038;-80
2023/02/28 10:38:17;;;;;;;6.57;4.97;;;;;;;26.05;9.75;98993.19;10392620;28;20065;-82
2023/02/28 10:43:39;;;;;;;5.32;4.40;;;;;;;24.27;10.68;98985.06;10392244;28;20053;-81
2023/02/28 10:49:05;;;;;;;7.28;4.65;;;;;;;24.56;11.39;98983.16;10393408;28;20045;-81
2023/02/28 10:54:31;;;;;;;5.50;4.72;;;;;;;26.25;11.05;98988.00;10378022;28;20049;-77
2023/02/28 10:59:54;;;;;;;5.22;4.50;;;;;;;22.72;11.29;98978.75;10391550;28;20042;-76
2023/02/28 11:05:31;;;;;;;8.10;5.80;;;;;;;17.35;14.56;98983.78;10391473;28;20057;-75
2023/02/28 11:11:06;;;;;;;8.02;6.15;;;;;;;14.20;18.54;98974.03;10404850;28;20046;-77
2023/02/28 11:16:37;;;;;;;8.20;6.47;;;;;;;13.70;19.02;98980.16;10390932;28;20045;-80
2023/02/28 11:22:00;;;;;;;9.88;6.60;;;;;;;13.80;19.18;98961.31;10378738;28;20048;-78
2023/02/28 11:27:30;;;;;;;10.95;7.10;;;;;;;13.25;19.37;98965.59;10409628;28;20047;-77
2023/02/28 11:32:51;;;;;;;10.57;7.25;;;;;;;12.41;20.51;98957.59;10429277;28;20107;-78
2023/02/28 11:38:12;;;;;;;11.63;8.05;;;;;;;11.01;24.00;98958.03;10386887;28;20044;-77
2023/02/28 11:43:44;;;;;;;12.18;7.97;;;;;;;10.61;24.13;98950.41;10415969;28;20041;-78
2023/02/28 11:49:23;;;;;;;12.65;7.85;;;;;;;11.05;23.62;98949.97;10402477;28;20049;-78
2023/02/28 11:55:09;;;;;;;13.85;7.68;;;;;;;10.98;23.83;98931.94;10414400;28;20050;-78
2023/02/28 12:01:00;;;;;;;9.88;7.45;;;;;;;10.56;24.21;98943.00;10409586;28;20467;-76
2023/02/28 12:06:30;;;;;;;10.82;8.20;;;;;;;9.93;25.91;98927.06;10398122;28;20060;-75
2023/02/28 12:11:56;;;;;;;11.48;7.82;;;;;;;10.07;25.05;98924.06;10405961;28;20442;-76
2023/02/28 12:17:33;;;;;;;13.05;8.80;;;;;;;10.11;25.28;98913.97;10382868;28;20049;-78
2023/02/28 12:23:19;;;;;;;11.50;7.85;;;;;;;9.91;25.69;98915.72;10410395;28;20029;-78
2023/02/28 12:28:43;;;;;;;13.05;8.30;;;;;;;9.63;26.74;98913.19;10410142;28;20044;-79
2023/02/28 12:34:10;;;;;;;13.63;8.60;;;;;;;9.41;26.70;98904.31;10396961;28;20041;-79
2023/02/28 12:39:34;;;;;;;11.65;7.90;;;;;;;9.82;26.58;98907.94;10397890;28;20475;-77
2023/02/28 12:45:20;;;;;;;12.82;8.77;;;;;;;10.04;26.50;98915.50;10394529;28;20045;-78
2023/02/28 12:50:42;;;;;;;12.32;8.63;;;;;;;9.72;25.97;98916.16;10381571;28;20121;-77
2023/02/28 12:56:09;;;;;;;11.40;7.78;;;;;;;9.00;27.40;98904.72;10406586;28;20091;-75
2023/02/28 13:01:36;;;;;;;11.50;8.52;;;;;;;8.93;27.19;98899.88;10400598;28;20041;-75
2023/02/28 13:07:18;;;;;;;12.32;8.10;;;;;;;8.99;27.84;98898.41;10403115;28;20041;-76
2023/02/28 13:12:47;;;;;;;11.40;8.27;;;;;;;9.40;27.77;98893.75;10403535;28;20049;-80
2023/02/28 13:18:27;;;;;;;12.35;8.38;;;;;;;9.42;27.77;98894.66;10365382;28;20084;-79
2023/02/28 13:23:55;;;;;;;13.07;8.82;;;;;;;9.15;27.67;98882.41;10400219;28;20454;-79
2023/02/28 13:29:16;;;;;;;12.20;8.57;;;;;;;9.29;27.73;98883.72;10386538;28;20045;-78
2023/02/28 13:35:07;;;;;;;10.40;7.88;;;;;;;8.64;28.09;98880.56;10402328;28;20052;-77
2023/02/28 13:40:36;;;;;;;14.23;9.10;;;;;;;8.17;28.44;98890.06;10405131;28;20123;-77
2023/02/28 13:46:10;;;;;;;11.35;8.75;;;;;;;7.84;29.70;98891.06;10375182;28;20041;-81
2023/02/28 13:51:43;;;;;;;13.13;7.60;;;;;;;7.11;29.96;98874.31;10333019;28;20045;-77
2023/02/28 13:57:29;;;;;;;14.18;8.55;;;;;;;6.99;31.61;98877.94;10362157;28;20037;-76
2023/02/28 14:03:08;;;;;;;11.57;8.27;;;;;;;7.20;30.82;98869.56;10399023;28;20061;-78
2023/02/28 14:08:30;;;;;;;11.40;7.90;;;;;;;7.50;31.25;98872.53;10394911;28;20037;-77
2023/02/28 14:13:51;;;;;;;15.57;8.27;;;;;;;7.47;31.15;98876.41;10393816;28;20041;-77
2023/02/28 14:19:15;;;;;;;14.57;8.85;;;;;;;7.38;31.13;98874.13;10393588;28;20399;-77
2023/02/28 14:25:05;;;;;;;12.73;8.55;;;;;;;7.38;31.67;98868.56;10392457;28;20075;-76
2023/02/28 14:31:01;;;;;;;11.63;8.00;;;;;;;7.40;31.79;98860.44;10402962;28;20073;-80
2023/02/28 14:36:33;;;;;;;14.05;8.52;;;;;;;7.44;31.52;98858.06;10408831;28;20470;-79
2023/02/28 14:41:54;;;;;;;12.45;8.02;;;;;;;6.91;31.77;98850.09;10420434;28;20045;-80
2023/02/28 14:47:16;;;;;;;13.70;8.65;;;;;;;6.60;32.29;98847.09;10367307;28;20042;-79
2023/02/28 14:52:37;;;;;;;12.55;8.55;;;;;;;6.53;32.89;98844.97;10338501;28;20049;-80
2023/02/28 14:58:06;;;;;;;13.57;8.52;;;;;;;6.50;32.59;98846.06;10337711;28;20732;-79
2023/02/28 15:03:37;;;;;;;14.35;9.38;;;;;;;6.42;32.81;98850.81;10337973;28;20061;-80
2023/02/28 15:09:09;;;;;;;15.57;10.60;;;;;;;6.18;33.41;98853.91;10337980;28;20480;-79
2023/02/28 15:14:30;;;;;;;14.93;10.38;;;;;;;6.10;33.88;98850.28;10336301;28;20046;-79
2023/02/28 15:19:51;;;;;;;14.52;10.15;;;;;;;6.08;34.99;98850.84;10363746;28;20037;-77
2023/02/28 15:25:14;;;;;;;14.55;10.30;;;;;;;6.06;33.75;98847.09;10416828;28;20041;-78
2023/02/28 15:30:36;;;;;;;16.25;10.70;;;;;;;5.92;35.30;98844.38;10417601;28;20041;-78
2023/02/28 15:36:17;;;;;;;16.42;9.52;;;;;;;5.73;34.10;98854.81;10417957;28;20402;-79
2023/02/28 15:41:38;;;;;;;11.45;8.25;;;;;;;5.62;34.60;98849.50;10417543;28;20045;-78
2023/02/28 15:47:04;;;;;;;14.27;8.88;;;;;;;5.47;35.06;98852.81;10431054;28;20052;-78
2023/02/28 15:52:33;;;;;;;17.25;8.82;;;;;;;5.36;35.33;98842.72;10417475;28;20045;-78
2023/02/28 15:57:58;;;;;;;16.27;9.70;;;;;;;5.27;35.85;98848.66;10417339;28;20482;-78
2023/02/28 16:03:26;;;;;;;16.02;9.32;;;;;;;5.03;35.44;98843.34;10430606;28;20446;-78
2023/02/28 16:08:48;;;;;;;13.70;8.88;;;;;;;4.80;35.72;98848.50;10416910;28;20403;-78
2023/02/28 16:14:17;;;;;;;13.85;8.07;;;;;;;4.54;36.62;98852.72;10430187;28;20541;-77
2023/02/28 16:19:38;;;;;;;13.60;8.57;;;;;;;4.35;37.13;98851.28;10416289;28;20091;-78
2023/02/28 16:24:59;;;;;;;16.13;9.23;;;;;;;4.25;37.09;98851.66;10402444;28;20071;-79
2023/02/28 16:30:24;;;;;;;15.18;8.48;;;;;;;4.03;38.94;98863.00;10415512;28;20052;-78
2023/02/28 16:35:45;;;;;;;12.90;8.65;;;;;;;3.98;37.44;98859.06;10401957;28;20037;-78
2023/02/28 16:41:08;;;;;;;13.60;8.30;;;;;;;3.89;37.59;98872.50;10415978;28;20536;-78
2023/02/28 16:46:34;;;;;;;15.63;8.82;;;;;;;3.76;38.78;98864.13;10414864;28;20047;-78
2023/02/28 16:51:55;;;;;;;16.45;8.13;;;;;;;3.59;39.72;98873.38;10428868;28;20445;-78
2023/02/28 16:57:19;;;;;;;14.20;8.52;;;;;;;3.52;38.28;98879.47;10401088;28;20045;-80
2023/02/28 17:02:40;;;;;;;15.93;8.82;;;;;;;3.50;39.39;98882.03;10410215;28;20530;-80
2023/02/28 17:08:03;;;;;;;14.00;8.98;;;;;;;3.46;39.35;98887.06;10371088;28;20037;-80
2023/02/28 17:13:24;;;;;;;12.85;8.63;;;;;;;3.40;40.31;98884.38;10386925;28;20080;-78
2023/02/28 17:18:45;;;;;;;13.75;8.68;;;;;;;3.37;39.16;98892.94;10386845;28;20043;-78
2023/02/28 17:24:06;;;;;;;14.10;8.45;;;;;;;3.30;40.95;98890.78;10387785;28;20042;-81
2023/02/28 17:29:27;;;;;;;14.25;8.60;;;;;;;3.26;39.71;98896.56;10401238;28;20403;-79
2023/02/28 17:34:48;;;;;;;16.08;9.73;;;;;;;3.22;40.05;98900.88;10373622;28;20472;-80
2023/02/28 17:40:16;;;;;;;18.23;9.23;;;;;;;3.14;40.19;98901.44;10390049;28;20048;-78
2023/02/28 17:45:37;;;;;;;18.70;8.90;;;;;;;3.12;40.01;98901.22;10435544;28;20106;-79
2023/02/28 17:50:58;;;;;;;16.55;8.85;;;;;;;3.09;40.45;98904.28;10405653;28;20442;-78
2023/02/28 17:56:24;;;;;;;15.77;8.85;;;;;;;3.06;41.14;98899.78;10421355;28;20040;-78
2023/02/28 18:01:45;;;;;;;14.70;9.68;;;;;;;3.02;40.70;98905.59;10421752;28;20041;-79
2023/02/28 18:07:06;;;;;;;16.13;8.77;;;;;;;3.00;40.57;98905.38;10407666;28;20049;-79
2023/02/28 18:12:27;;;;;;;17.02;9.65;;;;;;;2.96;41.14;98902.13;10435209;28;20048;-78
2023/02/28 18:17:50;;;;;;;15.90;9.35;;;;;;;2.94;40.45;98904.66;10434854;28;20060;-77
2023/02/28 18:23:11;;;;;;;14.45;9.15;;;;;;;2.84;41.23;98900.72;10434574;28;20043;-76
2023/02/28 18:28:33;;;;;;;15.88;10.35;;;;;;;2.80;41.58;98895.50;10420241;28;20061;-77
2023/02/28 18:33:54;;;;;;;16.65;10.48;;;;;;;2.74;42.21;98894.78;10420610;28;20037;-76
2023/02/28 18:39:16;;;;;;;23.60;14.10;;;;;;;2.72;42.20;98893.81;10420598;28;20128;-76
2023/02/28 18:44:37;;;;;;;45.95;22.98;;;;;;;2.65;41.79;98897.13;10447392;28;20037;-76
2023/02/28 18:49:58;;;;;;;32.35;17.48;;;;;;;2.57;42.63;98897.69;10419441;28;20483;-77
2023/02/28 18:55:22;;;;;;;27.83;15.48;;;;;;;2.53;42.21;98894.47;10446987;28;20445;-76
2023/02/28 19:00:43;;;;;;;27.63;15.45;;;;;;;2.49;42.51;98898.75;10412361;28;20041;-76
2023/02/28 19:06:04;;;;;;;31.65;17.42;;;;;;;2.44;42.21;98908.56;10348646;28;20054;-77
2023/02/28 19:11:25;;;;;;;26.25;13.38;;;;;;;2.29;42.62;98894.38;10350633;28;20050;-79
2023/02/28 19:16:46;;;;;;;23.60;12.63;;;;;;;2.22;43.20;98897.66;10336896;28;20473;-79
2023/02/28 19:22:08;;;;;;;21.63;11.90;;;;;;;2.19;42.67;98887.66;10323518;28;20049;-79
2023/02/28 19:27:29;;;;;;;21.63;12.00;;;;;;;2.14;42.96;98880.19;10336454;28;20046;-79
2023/02/28 19:32:49;;;;;;;18.67;11.82;;;;;;;2.13;43.45;98881.47;10336263;28;20049;-79
2023/02/28 19:38:11;;;;;;;19.75;12.63;;;;;;;2.10;43.04;98879.72;10336052;28;20069;-79
2023/02/28 19:43:32;;;;;;;29.30;15.73;;;;;;;2.14;43.52;98874.69;10336123;28;20404;-79
2023/02/28 19:48:53;;;;;;;26.77;14.45;;;;;;;2.14;42.58;98880.94;10322396;28;20046;-79
2023/02/28 19:54:15;;;;;;;24.25;13.48;;;;;;;2.12;43.56;98882.69;10322223;28;20393;-79
2023/02/28 19:59:35;;;;;;;22.92;13.27;;;;;;;2.14;43.76;98880.94;10334185;28;20072;-80
2023/02/28 20:04:59;;;;;;;20.57;12.60;;;;;;;2.16;44.25;98894.94;10335236;28;20053;-80
2023/02/28 20:10:21;;;;;;;21.48;11.85;;;;;;;2.15;43.98;98896.22;10335320;28;20049;-79
2023/02/28 20:15:41;;;;;;;21.75;12.98;;;;;;;2.11;44.63;98903.22;10335142;28;20038;-80
2023/02/28 20:21:02;;;;;;;21.67;12.27;;;;;;;2.01;44.57;98908.28;10337195;28;20037;-79
2023/02/28 20:26:23;;;;;;;20.73;11.77;;;;;;;1.98;44.18;98912.06;10331204;28;20137;-79
2023/02/28 20:31:44;;;;;;;20.65;12.48;;;;;;;1.85;44.93;98906.38;10346380;28;20038;-80
2023/02/28 20:37:05;;;;;;;21.90;11.02;;;;;;;1.80;44.77;98902.38;10319960;28;20042;-81
2023/02/28 20:42:26;;;;;;;21.80;12.73;;;;;;;1.73;45.15;98908.41;10348343;28;20046;-81
2023/02/28 20:47:47;;;;;;;18.45;11.27;;;;;;;1.69;45.03;98910.69;10342786;28;20042;-80
2023/02/28 20:53:08;;;;;;;20.77;10.85;;;;;;;1.61;45.80;98898.72;10361993;28;20492;-80
2023/02/28 20:58:33;;;;;;;20.20;11.35;;;;;;;1.53;45.62;98911.50;10364920;28;20073;-80
2023/02/28 21:04:06;;;;;;;18.85;11.07;;;;;;;1.46;45.72;98895.53;10368009;28;20168;-80
2023/02/28 21:09:36;;;;;;;23.70;12.85;;;;;;;1.44;45.86;98904.25;10380484;28;20045;-80
2023/02/28 21:14:57;;;;;;;20.40;12.27;;;;;;;1.37;46.72;98911.06;10349128;28;20037;-79
2023/02/28 21:20:21;;;;;;;19.67;12.40;;;;;;;1.39;46.63;98916.78;10369270;28;20094;-82
2023/02/28 21:25:43;;;;;;;23.20;12.88;;;;;;;1.37;46.11;98915.81;10377190;28;20112;-80
2023/02/28 21:31:06;;;;;;;20.60;11.82;;;;;;;1.29;46.74;98918.31;10363521;28;20042;-81
2023/02/28 21:36:31;;;;;;;21.10;13.43;;;;;;;1.28;48.09;98905.06;10384836;28;20061;-79
2023/02/28 21:41:52;;;;;;;22.70;13.13;;;;;;;1.24;46.98;98902.56;10371949;28;20145;-79
2023/02/28 21:47:13;;;;;;;26.48;14.25;;;;;;;1.22;47.24;98905.06;10371303;28;20045;-80
2023/02/28 21:52:34;;;;;;;20.38;12.90;;;;;;;1.14;46.88;98904.09;10362723;28;20045;-80
2023/02/28 21:57:55;;;;;;;27.83;13.93;;;;;;;1.06;46.84;98911.34;10386400;28;20042;-80
2023/02/28 22:03:16;;;;;;;22.98;14.40;;;;;;;1.00;47.10;98910.63;10372657;28;20062;-80
2023/02/28 22:08:39;;;;;;;25.08;15.00;;;;;;;0.91;47.71;98908.13;10372414;28;20475;-80
2023/02/28 22:14:00;;;;;;;23.65;14.55;;;;;;;0.85;48.14;98906.13;10386063;28;20364;-81
2023/02/28 22:19:21;;;;;;;23.75;13.63;;;;;;;0.84;47.94;98914.88;10386030;28;20052;-79
2023/02/28 22:24:42;;;;;;;26.73;14.27;;;;;;;0.81;48.30;98916.63;10386749;28;20410;-80
2023/02/28 22:30:03;;;;;;;25.73;15.02;;;;;;;0.81;48.38;98915.88;10379531;28;20495;-80
2023/02/28 22:35:24;;;;;;;27.50;15.20;;;;;;;0.80;48.74;98920.63;10393025;28;20076;-80
2023/02/28 22:40:44;;;;;;;26.60;14.88;;;;;;;0.74;48.54;98921.88;10392738;28;20052;-80
2023/02/28 22:46:08;;;;;;;30.02;16.98;;;;;;;0.68;49.61;98919.13;10393424;28;20046;-80
2023/02/28 22:51:29;;;;;;;25.65;15.40;;;;;;;0.65;49.69;98922.84;10406399;28;20419;-80
2023/02/28 22:56:50;;;;;;;23.75;14.65;;;;;;;0.60;49.44;98918.13;10392559;28;20491;-81
2023/02/28 23:02:11;;;;;;;22.80;14.20;;;;;;;0.62;49.87;98914.88;10392262;28;20068;-80
2023/02/28 23:07:32;;;;;;;25.10;14.45;;;;;;;0.60;49.60;98922.88;10391909;28;20041;-79
2023/02/28 23:12:53;;;;;;;29.52;15.82;;;;;;;0.59;49.80;98915.88;10391808;28;20045;-79
2023/02/28 23:18:14;;;;;;;28.15;15.93;;;;;;;0.57;50.05;98919.09;10405215;28;20069;-80
2023/02/28 23:23:35;;;;;;;27.80;16.35;;;;;;;0.52;50.02;98914.38;10404970;28;20061;-80
2023/02/28 23:28:55;;;;;;;28.92;16.02;;;;;;;0.50;49.57;98916.88;10391074;28;20041;-79
2023/02/28 23:34:23;;;;;;;25.63;16.05;;;;;;;0.41;50.39;98909.63;10376952;28;20376;-79
2023/02/28 23:39:44;;;;;;;28.27;16.10;;;;;;;0.39;50.69;98911.38;10390691;28;20392;-79
2023/02/28 23:45:06;;;;;;;32.85;17.98;;;;;;;0.27;50.68;98914.06;10377122;28;20054;-81
2023/02/28 23:50:27;;;;;;;28.65;16.63;;;;;;;0.28;50.97;98915.56;10390789;28;20037;-79
2023/02/28 23:55:48;;;;;;;30.98;18.17;;;;;;;0.23;50.60;98907.34;10376456;28;20041;-79
